sensor_id;sensor_type;location;lat;lon;timestamp;P1;durP1;ratioP1;P2;durP2;ratioP2
37231;SDS011;23125;48.156;15.954;2022-12-28T00:00:30;5.68;;;1.90;;
37231;SDS011;23125;48.156;15.954;2022-12-28T00:02:56;7.40;;;1.80;;
37231;SDS011;23125;48.156;15.954;2022-12-28T00:05:22;7.00;;;2.00;;
37231;SDS011;23125;48.156;15.954;2022-12-28T00:07:48;5.72;;;1.90;;
37231;SDS011;23125;48.156;15.954;2022-12-28T00:10:14;4.63;;;1.80;;
37231;SDS011;23125;48.156;15.954;2022-12-28T00:12:40;4.13;;;1.30;;
37231;SDS011;23125;48.156;15.954;2022-12-28T00:15:06;4.18;;;1.40;;
37231;SDS011;23125;48.156;15.954;2022-12-28T00:17:31;3.78;;;1.40;;
37231;SDS011;23125;48.156;15.954;2022-12-28T00:19:57;2.42;;;1.08;;
37231;SDS011;23125;48.156;15.954;2022-12-28T00:22:23;2.95;;;1.35;;
37231;SDS011;23125;48.156;15.954;2022-12-28T00:24:51;2.97;;;1.00;;
37231;SDS011;23125;48.156;15.954;2022-12-28T00:27:17;3.28;;;1.38;;
37231;SDS011;23125;48.156;15.954;2022-12-28T00:29:42;1.50;;;0.75;;
37231;SDS011;23125;48.156;15.954;2022-12-28T00:32:08;4.68;;;2.03;;
37231;SDS011;23125;48.156;15.954;2022-12-28T00:34:34;3.45;;;1.13;;
37231;SDS011;23125;48.156;15.954;2022-12-28T00:37:00;2.40;;;1.10;;
37231;SDS011;23125;48.156;15.954;2022-12-28T00:39:26;3.45;;;1.10;;
37231;SDS011;23125;48.156;15.954;2022-12-28T00:41:52;1.50;;;0.47;;
37231;SDS011;23125;48.156;15.954;2022-12-28T00:44:17;2.13;;;0.52;;
37231;SDS011;23125;48.156;15.954;2022-12-28T00:46:43;1.63;;;0.43;;
37231;SDS011;23125;48.156;15.954;2022-12-28T00:49:09;2.25;;;0.50;;
37231;SDS011;23125;48.156;15.954;2022-12-28T00:51:35;1.08;;;0.50;;
37231;SDS011;23125;48.156;15.954;2022-12-28T00:54:01;2.83;;;0.57;;
37231;SDS011;23125;48.156;15.954;2022-12-28T00:56:27;1.52;;;0.55;;
37231;SDS011;23125;48.156;15.954;2022-12-28T00:58:56;3.42;;;0.45;;
37231;SDS011;23125;48.156;15.954;2022-12-28T01:01:23;0.70;;;0.35;;
37231;SDS011;23125;48.156;15.954;2022-12-28T01:03:51;0.50;;;0.35;;
37231;SDS011;23125;48.156;15.954;2022-12-28T01:06:19;2.15;;;0.45;;
37231;SDS011;23125;48.156;15.954;2022-12-28T01:08:45;1.33;;;0.32;;
37231;SDS011;23125;48.156;15.954;2022-12-28T01:11:13;2.53;;;0.57;;
37231;SDS011;23125;48.156;15.954;2022-12-28T01:16:19;1.20;;;0.20;;
37231;SDS011;23125;48.156;15.954;2022-12-28T01:18:47;1.30;;;0.20;;
37231;SDS011;23125;48.156;15.954;2022-12-28T01:21:16;0.22;;;0.20;;
37231;SDS011;23125;48.156;15.954;2022-12-28T01:23:44;0.67;;;0.30;;
37231;SDS011;23125;48.156;15.954;2022-12-28T01:26:12;1.13;;;0.50;;
37231;SDS011;23125;48.156;15.954;2022-12-28T01:28:38;0.88;;;0.32;;
37231;SDS011;23125;48.156;15.954;2022-12-28T01:31:06;0.47;;;0.25;;
37231;SDS011;23125;48.156;15.954;2022-12-28T01:33:36;2.25;;;0.70;;
37231;SDS011;23125;48.156;15.954;2022-12-28T01:36:09;1.10;;;0.45;;
37231;SDS011;23125;48.156;15.954;2022-12-28T01:38:38;2.05;;;0.60;;
37231;SDS011;23125;48.156;15.954;2022-12-28T01:41:08;0.80;;;0.30;;
37231;SDS011;23125;48.156;15.954;2022-12-28T01:43:40;0.32;;;0.20;;
37231;SDS011;23125;48.156;15.954;2022-12-28T01:46:12;0.73;;;0.25;;
37231;SDS011;23125;48.156;15.954;2022-12-28T01:48:45;0.63;;;0.28;;
37231;SDS011;23125;48.156;15.954;2022-12-28T01:51:47;2.58;;;0.30;;
37231;SDS011;23125;48.156;15.954;2022-12-28T01:54:34;0.77;;;0.25;;
37231;SDS011;23125;48.156;15.954;2022-12-28T01:57:04;0.63;;;0.20;;
37231;SDS011;23125;48.156;15.954;2022-12-28T01:59:31;2.35;;;0.40;;
37231;SDS011;23125;48.156;15.954;2022-12-28T02:02:00;1.05;;;0.77;;
37231;SDS011;23125;48.156;15.954;2022-12-28T02:04:26;0.93;;;0.50;;
37231;SDS011;23125;48.156;15.954;2022-12-28T02:06:53;1.60;;;0.68;;
37231;SDS011;23125;48.156;15.954;2022-12-28T02:09:32;0.88;;;0.30;;
37231;SDS011;23125;48.156;15.954;2022-12-28T02:12:07;1.30;;;0.40;;
37231;SDS011;23125;48.156;15.954;2022-12-28T02:14:37;1.35;;;0.50;;
37231;SDS011;23125;48.156;15.954;2022-12-28T02:17:06;1.02;;;0.43;;
37231;SDS011;23125;48.156;15.954;2022-12-28T02:19:36;0.95;;;0.40;;
37231;SDS011;23125;48.156;15.954;2022-12-28T02:25:48;3.88;;;0.47;;
37231;SDS011;23125;48.156;15.954;2022-12-28T02:30:58;0.55;;;0.30;;
37231;SDS011;23125;48.156;15.954;2022-12-28T02:33:40;1.48;;;0.40;;
37231;SDS011;23125;48.156;15.954;2022-12-28T02:36:18;0.77;;;0.30;;
37231;SDS011;23125;48.156;15.954;2022-12-28T02:38:50;0.82;;;0.28;;
37231;SDS011;23125;48.156;15.954;2022-12-28T02:41:27;1.13;;;0.40;;
37231;SDS011;23125;48.156;15.954;2022-12-28T02:43:57;1.07;;;0.30;;
37231;SDS011;23125;48.156;15.954;2022-12-28T02:46:30;1.95;;;0.52;;
37231;SDS011;23125;48.156;15.954;2022-12-28T02:49:17;1.42;;;0.40;;
37231;SDS011;23125;48.156;15.954;2022-12-28T02:58:07;0.60;;;0.30;;
37231;SDS011;23125;48.156;15.954;2022-12-28T03:06:57;1.00;;;0.35;;
37231;SDS011;23125;48.156;15.954;2022-12-28T03:09:57;1.35;;;0.50;;
37231;SDS011;23125;48.156;15.954;2022-12-28T03:12:51;0.70;;;0.45;;
37231;SDS011;23125;48.156;15.954;2022-12-28T03:15:28;0.75;;;0.30;;
37231;SDS011;23125;48.156;15.954;2022-12-28T03:18:12;0.70;;;0.40;;
37231;SDS011;23125;48.156;15.954;2022-12-28T03:21:01;0.80;;;0.40;;
37231;SDS011;23125;48.156;15.954;2022-12-28T03:23:49;1.17;;;0.50;;
37231;SDS011;23125;48.156;15.954;2022-12-28T03:26:36;3.42;;;1.30;;
37231;SDS011;23125;48.156;15.954;2022-12-28T03:29:26;2.53;;;0.80;;
37231;SDS011;23125;48.156;15.954;2022-12-28T03:32:12;2.58;;;1.13;;
37231;SDS011;23125;48.156;15.954;2022-12-28T03:34:38;5.72;;;0.88;;
37231;SDS011;23125;48.156;15.954;2022-12-28T03:37:09;2.03;;;0.80;;
37231;SDS011;23125;48.156;15.954;2022-12-28T03:39:44;1.25;;;0.60;;
37231;SDS011;23125;48.156;15.954;2022-12-28T03:48:32;1.58;;;0.60;;
37231;SDS011;23125;48.156;15.954;2022-12-28T03:51:01;1.42;;;0.60;;
37231;SDS011;23125;48.156;15.954;2022-12-28T03:53:33;2.42;;;0.75;;
37231;SDS011;23125;48.156;15.954;2022-12-28T03:56:12;3.38;;;0.70;;
37231;SDS011;23125;48.156;15.954;2022-12-28T03:58:43;2.42;;;0.65;;
37231;SDS011;23125;48.156;15.954;2022-12-28T04:01:11;1.95;;;0.93;;
37231;SDS011;23125;48.156;15.954;2022-12-28T04:03:37;1.10;;;0.50;;
37231;SDS011;23125;48.156;15.954;2022-12-28T04:06:04;2.33;;;0.93;;
37231;SDS011;23125;48.156;15.954;2022-12-28T04:08:31;1.92;;;0.55;;
37231;SDS011;23125;48.156;15.954;2022-12-28T04:10:58;2.17;;;0.70;;
37231;SDS011;23125;48.156;15.954;2022-12-28T04:13:29;2.95;;;0.90;;
37231;SDS011;23125;48.156;15.954;2022-12-28T04:15:57;1.38;;;0.80;;
37231;SDS011;23125;48.156;15.954;2022-12-28T04:18:27;2.20;;;0.73;;
37231;SDS011;23125;48.156;15.954;2022-12-28T04:20:54;2.22;;;1.40;;
37231;SDS011;23125;48.156;15.954;2022-12-28T04:23:20;2.65;;;1.00;;
37231;SDS011;23125;48.156;15.954;2022-12-28T04:25:59;2.15;;;1.17;;
37231;SDS011;23125;48.156;15.954;2022-12-28T04:28:27;9.00;;;4.00;;
37231;SDS011;23125;48.156;15.954;2022-12-28T04:30:54;4.90;;;2.15;;
37231;SDS011;23125;48.156;15.954;2022-12-28T04:33:22;3.10;;;1.88;;
37231;SDS011;23125;48.156;15.954;2022-12-28T04:35:49;4.45;;;2.08;;
37231;SDS011;23125;48.156;15.954;2022-12-28T04:38:15;4.72;;;2.10;;
37231;SDS011;23125;48.156;15.954;2022-12-28T04:40:41;5.05;;;2.40;;
37231;SDS011;23125;48.156;15.954;2022-12-28T04:43:07;3.83;;;2.40;;
37231;SDS011;23125;48.156;15.954;2022-12-28T04:45:33;4.80;;;2.28;;
37231;SDS011;23125;48.156;15.954;2022-12-28T04:47:59;3.78;;;2.28;;
37231;SDS011;23125;48.156;15.954;2022-12-28T04:50:27;6.72;;;3.45;;
37231;SDS011;23125;48.156;15.954;2022-12-28T04:52:54;4.75;;;2.58;;
37231;SDS011;23125;48.156;15.954;2022-12-28T04:55:20;3.88;;;2.10;;
37231;SDS011;23125;48.156;15.954;2022-12-28T04:57:46;2.30;;;1.33;;
37231;SDS011;23125;48.156;15.954;2022-12-28T05:00:12;2.63;;;1.30;;
37231;SDS011;23125;48.156;15.954;2022-12-28T05:02:39;2.83;;;1.50;;
37231;SDS011;23125;48.156;15.954;2022-12-28T05:05:05;2.38;;;1.50;;
37231;SDS011;23125;48.156;15.954;2022-12-28T05:07:31;2.95;;;1.60;;
37231;SDS011;23125;48.156;15.954;2022-12-28T05:09:57;3.05;;;1.40;;
37231;SDS011;23125;48.156;15.954;2022-12-28T05:12:23;1.98;;;1.20;;
37231;SDS011;23125;48.156;15.954;2022-12-28T05:14:50;1.95;;;1.02;;
37231;SDS011;23125;48.156;15.954;2022-12-28T05:17:16;1.77;;;1.30;;
37231;SDS011;23125;48.156;15.954;2022-12-28T05:19:42;2.85;;;1.10;;
37231;SDS011;23125;48.156;15.954;2022-12-28T05:22:08;2.50;;;1.35;;
37231;SDS011;23125;48.156;15.954;2022-12-28T05:24:38;3.88;;;1.38;;
37231;SDS011;23125;48.156;15.954;2022-12-28T05:27:04;2.78;;;1.27;;
37231;SDS011;23125;48.156;15.954;2022-12-28T05:29:30;1.80;;;1.10;;
37231;SDS011;23125;48.156;15.954;2022-12-28T05:31:56;2.03;;;1.25;;
37231;SDS011;23125;48.156;15.954;2022-12-28T05:34:22;3.33;;;1.17;;
37231;SDS011;23125;48.156;15.954;2022-12-28T05:36:48;1.90;;;1.10;;
37231;SDS011;23125;48.156;15.954;2022-12-28T05:39:14;2.95;;;1.10;;
37231;SDS011;23125;48.156;15.954;2022-12-28T05:41:39;3.53;;;1.20;;
37231;SDS011;23125;48.156;15.954;2022-12-28T05:44:05;3.25;;;1.25;;
37231;SDS011;23125;48.156;15.954;2022-12-28T05:46:32;2.47;;;1.08;;
37231;SDS011;23125;48.156;15.954;2022-12-28T05:48:58;2.83;;;1.20;;
37231;SDS011;23125;48.156;15.954;2022-12-28T05:51:26;1.65;;;1.00;;
37231;SDS011;23125;48.156;15.954;2022-12-28T05:53:54;4.63;;;1.77;;
37231;SDS011;23125;48.156;15.954;2022-12-28T05:56:23;2.92;;;1.50;;
37231;SDS011;23125;48.156;15.954;2022-12-28T05:58:57;3.90;;;1.45;;
37231;SDS011;23125;48.156;15.954;2022-12-28T06:01:29;5.38;;;1.80;;
37231;SDS011;23125;48.156;15.954;2022-12-28T06:03:58;11.90;;;3.03;;
37231;SDS011;23125;48.156;15.954;2022-12-28T06:06:26;10.48;;;3.35;;
37231;SDS011;23125;48.156;15.954;2022-12-28T06:08:52;8.02;;;3.25;;
37231;SDS011;23125;48.156;15.954;2022-12-28T06:11:20;14.18;;;4.93;;
37231;SDS011;23125;48.156;15.954;2022-12-28T06:13:47;9.45;;;3.55;;
37231;SDS011;23125;48.156;15.954;2022-12-28T06:16:15;15.02;;;5.63;;
37231;SDS011;23125;48.156;15.954;2022-12-28T06:18:43;17.20;;;6.25;;
37231;SDS011;23125;48.156;15.954;2022-12-28T06:21:11;16.85;;;4.75;;
37231;SDS011;23125;48.156;15.954;2022-12-28T06:23:39;18.97;;;6.43;;
37231;SDS011;23125;48.156;15.954;2022-12-28T06:26:06;19.27;;;7.63;;
37231;SDS011;23125;48.156;15.954;2022-12-28T06:28:35;16.55;;;6.50;;
37231;SDS011;23125;48.156;15.954;2022-12-28T06:33:39;10.93;;;5.00;;
37231;SDS011;23125;48.156;15.954;2022-12-28T06:36:12;10.65;;;4.40;;
37231;SDS011;23125;48.156;15.954;2022-12-28T06:38:41;11.18;;;4.05;;
37231;SDS011;23125;48.156;15.954;2022-12-28T06:41:07;9.50;;;3.80;;
37231;SDS011;23125;48.156;15.954;2022-12-28T06:43:35;7.38;;;3.92;;
37231;SDS011;23125;48.156;15.954;2022-12-28T06:46:05;8.43;;;3.28;;
37231;SDS011;23125;48.156;15.954;2022-12-28T06:50:58;6.53;;;2.92;;
37231;SDS011;23125;48.156;15.954;2022-12-28T06:53:26;10.57;;;4.13;;
37231;SDS011;23125;48.156;15.954;2022-12-28T06:55:57;18.40;;;8.23;;
37231;SDS011;23125;48.156;15.954;2022-12-28T06:58:25;12.02;;;5.15;;
37231;SDS011;23125;48.156;15.954;2022-12-28T07:00:52;11.50;;;5.13;;
37231;SDS011;23125;48.156;15.954;2022-12-28T07:03:19;15.75;;;6.00;;
37231;SDS011;23125;48.156;15.954;2022-12-28T07:05:46;10.65;;;5.03;;
37231;SDS011;23125;48.156;15.954;2022-12-28T07:08:12;9.30;;;4.90;;
37231;SDS011;23125;48.156;15.954;2022-12-28T07:10:38;11.23;;;4.72;;
37231;SDS011;23125;48.156;15.954;2022-12-28T07:13:04;10.70;;;4.82;;
37231;SDS011;23125;48.156;15.954;2022-12-28T07:15:30;8.18;;;4.40;;
37231;SDS011;23125;48.156;15.954;2022-12-28T07:17:59;8.80;;;5.05;;
37231;SDS011;23125;48.156;15.954;2022-12-28T07:20:25;9.10;;;4.78;;
37231;SDS011;23125;48.156;15.954;2022-12-28T07:22:51;7.10;;;3.95;;
37231;SDS011;23125;48.156;15.954;2022-12-28T07:25:18;7.40;;;4.13;;
37231;SDS011;23125;48.156;15.954;2022-12-28T07:27:44;9.25;;;4.70;;
37231;SDS011;23125;48.156;15.954;2022-12-28T07:30:10;10.32;;;4.68;;
37231;SDS011;23125;48.156;15.954;2022-12-28T07:32:36;10.00;;;4.78;;
37231;SDS011;23125;48.156;15.954;2022-12-28T07:35:03;13.95;;;4.63;;
37231;SDS011;23125;48.156;15.954;2022-12-28T07:37:29;10.15;;;4.47;;
37231;SDS011;23125;48.156;15.954;2022-12-28T07:39:55;14.57;;;4.45;;
37231;SDS011;23125;48.156;15.954;2022-12-28T07:42:21;10.85;;;5.50;;
37231;SDS011;23125;48.156;15.954;2022-12-28T07:44:47;8.60;;;4.57;;
37231;SDS011;23125;48.156;15.954;2022-12-28T07:47:13;7.88;;;3.70;;
37231;SDS011;23125;48.156;15.954;2022-12-28T07:49:39;8.43;;;4.35;;
37231;SDS011;23125;48.156;15.954;2022-12-28T07:52:05;7.25;;;4.03;;
37231;SDS011;23125;48.156;15.954;2022-12-28T07:54:31;4.60;;;2.75;;
37231;SDS011;23125;48.156;15.954;2022-12-28T07:56:57;7.30;;;4.22;;
37231;SDS011;23125;48.156;15.954;2022-12-28T07:59:23;7.50;;;4.13;;
37231;SDS011;23125;48.156;15.954;2022-12-28T08:01:49;8.88;;;3.70;;
37231;SDS011;23125;48.156;15.954;2022-12-28T08:04:16;9.45;;;4.88;;
37231;SDS011;23125;48.156;15.954;2022-12-28T08:06:43;12.63;;;4.18;;
37231;SDS011;23125;48.156;15.954;2022-12-28T08:09:11;9.25;;;4.70;;
37231;SDS011;23125;48.156;15.954;2022-12-28T08:11:39;9.55;;;4.75;;
37231;SDS011;23125;48.156;15.954;2022-12-28T08:14:07;7.82;;;4.10;;
37231;SDS011;23125;48.156;15.954;2022-12-28T08:16:37;10.32;;;4.25;;
37231;SDS011;23125;48.156;15.954;2022-12-28T08:19:05;9.77;;;4.13;;
37231;SDS011;23125;48.156;15.954;2022-12-28T08:21:35;9.60;;;4.22;;
37231;SDS011;23125;48.156;15.954;2022-12-28T08:24:04;8.10;;;3.45;;
37231;SDS011;23125;48.156;15.954;2022-12-28T08:26:32;11.52;;;4.07;;
37231;SDS011;23125;48.156;15.954;2022-12-28T08:29:01;9.02;;;4.75;;
37231;SDS011;23125;48.156;15.954;2022-12-28T08:31:31;12.80;;;5.80;;
37231;SDS011;23125;48.156;15.954;2022-12-28T08:33:59;12.27;;;4.85;;
37231;SDS011;23125;48.156;15.954;2022-12-28T08:36:26;12.50;;;5.32;;
37231;SDS011;23125;48.156;15.954;2022-12-28T08:38:52;13.15;;;4.75;;
37231;SDS011;23125;48.156;15.954;2022-12-28T08:41:19;12.57;;;5.63;;
37231;SDS011;23125;48.156;15.954;2022-12-28T08:43:47;20.17;;;7.85;;
37231;SDS011;23125;48.156;15.954;2022-12-28T08:46:18;16.20;;;5.72;;
37231;SDS011;23125;48.156;15.954;2022-12-28T08:48:49;13.70;;;6.10;;
37231;SDS011;23125;48.156;15.954;2022-12-28T08:51:17;17.38;;;7.15;;
37231;SDS011;23125;48.156;15.954;2022-12-28T08:53:45;9.95;;;5.00;;
37231;SDS011;23125;48.156;15.954;2022-12-28T08:58:41;11.52;;;5.03;;
37231;SDS011;23125;48.156;15.954;2022-12-28T09:01:09;4.75;;;3.30;;
37231;SDS011;23125;48.156;15.954;2022-12-28T09:03:37;9.82;;;4.63;;
37231;SDS011;23125;48.156;15.954;2022-12-28T09:06:04;6.60;;;5.07;;
37231;SDS011;23125;48.156;15.954;2022-12-28T09:08:32;7.03;;;4.18;;
37231;SDS011;23125;48.156;15.954;2022-12-28T09:10:59;4.97;;;3.78;;
37231;SDS011;23125;48.156;15.954;2022-12-28T09:13:26;7.03;;;3.50;;
37231;SDS011;23125;48.156;15.954;2022-12-28T09:15:59;5.03;;;3.58;;
37231;SDS011;23125;48.156;15.954;2022-12-28T09:18:30;14.10;;;8.82;;
37231;SDS011;23125;48.156;15.954;2022-12-28T09:20:56;8.45;;;5.65;;
37231;SDS011;23125;48.156;15.954;2022-12-28T09:23:28;9.05;;;5.68;;
37231;SDS011;23125;48.156;15.954;2022-12-28T09:25:53;6.70;;;5.00;;
37231;SDS011;23125;48.156;15.954;2022-12-28T09:28:19;8.60;;;4.68;;
37231;SDS011;23125;48.156;15.954;2022-12-28T09:30:45;8.20;;;5.63;;
37231;SDS011;23125;48.156;15.954;2022-12-28T09:33:11;5.65;;;3.85;;
37231;SDS011;23125;48.156;15.954;2022-12-28T09:35:56;14.27;;;9.15;;
37231;SDS011;23125;48.156;15.954;2022-12-28T09:38:24;11.13;;;6.88;;
37231;SDS011;23125;48.156;15.954;2022-12-28T09:40:50;10.38;;;7.40;;
37231;SDS011;23125;48.156;15.954;2022-12-28T09:43:16;13.30;;;8.48;;
37231;SDS011;23125;48.156;15.954;2022-12-28T09:45:42;16.95;;;10.93;;
37231;SDS011;23125;48.156;15.954;2022-12-28T09:48:10;15.60;;;10.90;;
37231;SDS011;23125;48.156;15.954;2022-12-28T09:50:40;13.65;;;9.15;;
37231;SDS011;23125;48.156;15.954;2022-12-28T09:53:27;8.55;;;5.95;;
37231;SDS011;23125;48.156;15.954;2022-12-28T09:55:59;8.48;;;6.28;;
37231;SDS011;23125;48.156;15.954;2022-12-28T09:58:27;6.80;;;4.28;;
37231;SDS011;23125;48.156;15.954;2022-12-28T10:00:56;5.25;;;3.08;;
37231;SDS011;23125;48.156;15.954;2022-12-28T10:03:24;4.70;;;3.15;;
37231;SDS011;23125;48.156;15.954;2022-12-28T10:06:12;5.25;;;3.50;;
37231;SDS011;23125;48.156;15.954;2022-12-28T10:08:41;5.20;;;3.30;;
37231;SDS011;23125;48.156;15.954;2022-12-28T10:11:15;4.82;;;3.22;;
37231;SDS011;23125;48.156;15.954;2022-12-28T10:13:52;7.22;;;4.35;;
37231;SDS011;23125;48.156;15.954;2022-12-28T10:16:21;4.15;;;2.83;;
37231;SDS011;23125;48.156;15.954;2022-12-28T10:18:49;4.35;;;2.70;;
37231;SDS011;23125;48.156;15.954;2022-12-28T10:21:16;4.45;;;2.58;;
37231;SDS011;23125;48.156;15.954;2022-12-28T10:23:45;5.25;;;2.78;;
37231;SDS011;23125;48.156;15.954;2022-12-28T10:26:15;6.10;;;2.90;;
37231;SDS011;23125;48.156;15.954;2022-12-28T10:28:53;3.97;;;2.78;;
37231;SDS011;23125;48.156;15.954;2022-12-28T10:31:33;6.32;;;2.92;;
37231;SDS011;23125;48.156;15.954;2022-12-28T10:34:01;5.40;;;3.20;;
37231;SDS011;23125;48.156;15.954;2022-12-28T10:36:37;4.65;;;2.92;;
37231;SDS011;23125;48.156;15.954;2022-12-28T10:39:04;5.72;;;3.55;;
37231;SDS011;23125;48.156;15.954;2022-12-28T10:41:37;6.43;;;4.20;;
37231;SDS011;23125;48.156;15.954;2022-12-28T10:44:13;8.60;;;5.03;;
37231;SDS011;23125;48.156;15.954;2022-12-28T10:46:50;7.57;;;4.50;;
37231;SDS011;23125;48.156;15.954;2022-12-28T10:49:26;11.23;;;5.20;;
37231;SDS011;23125;48.156;15.954;2022-12-28T10:54:40;5.75;;;2.90;;
37231;SDS011;23125;48.156;15.954;2022-12-28T10:57:16;4.35;;;2.42;;
37231;SDS011;23125;48.156;15.954;2022-12-28T10:59:42;4.82;;;2.92;;
37231;SDS011;23125;48.156;15.954;2022-12-28T11:02:26;5.63;;;2.97;;
37231;SDS011;23125;48.156;15.954;2022-12-28T11:04:55;5.13;;;3.38;;
37231;SDS011;23125;48.156;15.954;2022-12-28T11:07:25;4.47;;;3.22;;
37231;SDS011;23125;48.156;15.954;2022-12-28T11:09:53;4.93;;;3.38;;
37231;SDS011;23125;48.156;15.954;2022-12-28T11:12:44;6.45;;;3.17;;
37231;SDS011;23125;48.156;15.954;2022-12-28T11:15:14;6.45;;;4.13;;
37231;SDS011;23125;48.156;15.954;2022-12-28T11:17:42;10.30;;;6.07;;
37231;SDS011;23125;48.156;15.954;2022-12-28T11:20:16;10.95;;;7.25;;
37231;SDS011;23125;48.156;15.954;2022-12-28T11:22:45;17.52;;;11.27;;
37231;SDS011;23125;48.156;15.954;2022-12-28T11:25:17;10.18;;;5.22;;
37231;SDS011;23125;48.156;15.954;2022-12-28T11:27:53;11.75;;;7.93;;
37231;SDS011;23125;48.156;15.954;2022-12-28T11:30:19;7.32;;;4.55;;
37231;SDS011;23125;48.156;15.954;2022-12-28T11:32:52;9.50;;;5.57;;
37231;SDS011;23125;48.156;15.954;2022-12-28T11:35:27;8.82;;;4.38;;
37231;SDS011;23125;48.156;15.954;2022-12-28T11:37:56;7.10;;;3.78;;
37231;SDS011;23125;48.156;15.954;2022-12-28T11:40:45;7.68;;;3.90;;
37231;SDS011;23125;48.156;15.954;2022-12-28T11:48:56;5.95;;;3.72;;
37231;SDS011;23125;48.156;15.954;2022-12-28T11:51:23;5.80;;;3.90;;
37231;SDS011;23125;48.156;15.954;2022-12-28T11:53:59;5.07;;;3.55;;
37231;SDS011;23125;48.156;15.954;2022-12-28T11:59:26;8.55;;;4.45;;
37231;SDS011;23125;48.156;15.954;2022-12-28T12:01:55;9.52;;;5.22;;
37231;SDS011;23125;48.156;15.954;2022-12-28T12:04:29;8.43;;;5.15;;
37231;SDS011;23125;48.156;15.954;2022-12-28T12:09:38;10.82;;;6.55;;
37231;SDS011;23125;48.156;15.954;2022-12-28T12:14:43;12.30;;;6.95;;
37231;SDS011;23125;48.156;15.954;2022-12-28T12:20:01;21.08;;;10.52;;
37231;SDS011;23125;48.156;15.954;2022-12-28T12:22:50;26.42;;;14.15;;
37231;SDS011;23125;48.156;15.954;2022-12-28T12:25:34;20.02;;;10.68;;
37231;SDS011;23125;48.156;15.954;2022-12-28T12:28:11;12.43;;;8.10;;
37231;SDS011;23125;48.156;15.954;2022-12-28T12:30:52;9.82;;;6.68;;
37231;SDS011;23125;48.156;15.954;2022-12-28T12:33:26;15.25;;;9.35;;
37231;SDS011;23125;48.156;15.954;2022-12-28T12:36:04;13.88;;;8.60;;
37231;SDS011;23125;48.156;15.954;2022-12-28T12:44:28;10.50;;;5.95;;
37231;SDS011;23125;48.156;15.954;2022-12-28T12:49:35;17.50;;;5.90;;
37231;SDS011;23125;48.156;15.954;2022-12-28T12:55:02;8.98;;;5.10;;
37231;SDS011;23125;48.156;15.954;2022-12-28T13:00:21;4.97;;;3.80;;
37231;SDS011;23125;48.156;15.954;2022-12-28T13:03:07;6.85;;;4.20;;
37231;SDS011;23125;48.156;15.954;2022-12-28T13:05:58;7.30;;;4.18;;
37231;SDS011;23125;48.156;15.954;2022-12-28T13:08:32;6.93;;;4.13;;
37231;SDS011;23125;48.156;15.954;2022-12-28T13:11:09;6.47;;;4.00;;
37231;SDS011;23125;48.156;15.954;2022-12-28T13:13:37;7.45;;;3.83;;
37231;SDS011;23125;48.156;15.954;2022-12-28T13:16:09;5.05;;;3.65;;
37231;SDS011;23125;48.156;15.954;2022-12-28T13:18:39;6.15;;;3.67;;
37231;SDS011;23125;48.156;15.954;2022-12-28T13:21:05;5.82;;;3.67;;
37231;SDS011;23125;48.156;15.954;2022-12-28T13:23:32;5.57;;;3.70;;
37231;SDS011;23125;48.156;15.954;2022-12-28T13:26:08;6.65;;;3.58;;
37231;SDS011;23125;48.156;15.954;2022-12-28T13:28:48;6.85;;;4.18;;
37231;SDS011;23125;48.156;15.954;2022-12-28T13:31:19;10.18;;;5.82;;
37231;SDS011;23125;48.156;15.954;2022-12-28T13:33:57;12.95;;;6.93;;
37231;SDS011;23125;48.156;15.954;2022-12-28T13:36:24;13.18;;;7.05;;
37231;SDS011;23125;48.156;15.954;2022-12-28T13:41:37;9.43;;;5.93;;
37231;SDS011;23125;48.156;15.954;2022-12-28T13:46:45;17.52;;;11.00;;
37231;SDS011;23125;48.156;15.954;2022-12-28T13:49:17;11.60;;;7.57;;
37231;SDS011;23125;48.156;15.954;2022-12-28T13:51:45;15.32;;;7.97;;
37231;SDS011;23125;48.156;15.954;2022-12-28T13:54:11;10.98;;;6.10;;
37231;SDS011;23125;48.156;15.954;2022-12-28T13:59:05;13.60;;;6.20;;
37231;SDS011;23125;48.156;15.954;2022-12-28T14:01:37;10.70;;;6.65;;
37231;SDS011;23125;48.156;15.954;2022-12-28T14:04:08;12.88;;;7.20;;
37231;SDS011;23125;48.156;15.954;2022-12-28T14:06:40;10.25;;;5.90;;
37231;SDS011;23125;48.156;15.954;2022-12-28T14:09:08;8.60;;;5.60;;
37231;SDS011;23125;48.156;15.954;2022-12-28T14:11:37;12.68;;;6.15;;
37231;SDS011;23125;48.156;15.954;2022-12-28T14:14:05;10.13;;;5.75;;
37231;SDS011;23125;48.156;15.954;2022-12-28T14:16:32;9.35;;;5.75;;
37231;SDS011;23125;48.156;15.954;2022-12-28T14:18:58;14.15;;;8.40;;
37231;SDS011;23125;48.156;15.954;2022-12-28T14:21:31;10.15;;;6.05;;
37231;SDS011;23125;48.156;15.954;2022-12-28T14:24:03;10.48;;;6.35;;
37231;SDS011;23125;48.156;15.954;2022-12-28T14:26:31;13.02;;;6.45;;
37231;SDS011;23125;48.156;15.954;2022-12-28T14:28:58;12.25;;;7.20;;
37231;SDS011;23125;48.156;15.954;2022-12-28T14:31:26;11.80;;;6.30;;
37231;SDS011;23125;48.156;15.954;2022-12-28T14:33:57;12.52;;;6.47;;
37231;SDS011;23125;48.156;15.954;2022-12-28T14:36:29;10.27;;;7.03;;
37231;SDS011;23125;48.156;15.954;2022-12-28T14:38:56;12.00;;;6.60;;
37231;SDS011;23125;48.156;15.954;2022-12-28T14:41:32;9.23;;;5.88;;
37231;SDS011;23125;48.156;15.954;2022-12-28T14:44:06;15.52;;;9.02;;
37231;SDS011;23125;48.156;15.954;2022-12-28T14:46:40;14.10;;;7.82;;
37231;SDS011;23125;48.156;15.954;2022-12-28T14:49:27;11.95;;;7.07;;
37231;SDS011;23125;48.156;15.954;2022-12-28T14:51:55;12.00;;;8.18;;
37231;SDS011;23125;48.156;15.954;2022-12-28T14:54:42;12.75;;;7.85;;
37231;SDS011;23125;48.156;15.954;2022-12-28T14:57:23;13.98;;;7.65;;
37231;SDS011;23125;48.156;15.954;2022-12-28T15:00:02;14.38;;;8.27;;
37231;SDS011;23125;48.156;15.954;2022-12-28T15:05:00;10.52;;;7.00;;
37231;SDS011;23125;48.156;15.954;2022-12-28T15:07:26;13.32;;;7.07;;
37231;SDS011;23125;48.156;15.954;2022-12-28T15:09:52;14.98;;;8.65;;
37231;SDS011;23125;48.156;15.954;2022-12-28T15:12:19;10.52;;;8.52;;
37231;SDS011;23125;48.156;15.954;2022-12-28T15:14:48;12.38;;;7.35;;
37231;SDS011;23125;48.156;15.954;2022-12-28T15:17:15;13.32;;;7.28;;
37231;SDS011;23125;48.156;15.954;2022-12-28T15:19:42;9.80;;;6.78;;
37231;SDS011;23125;48.156;15.954;2022-12-28T15:22:12;15.15;;;7.70;;
37231;SDS011;23125;48.156;15.954;2022-12-28T15:24:38;11.20;;;7.47;;
37231;SDS011;23125;48.156;15.954;2022-12-28T15:27:05;13.55;;;8.00;;
37231;SDS011;23125;48.156;15.954;2022-12-28T15:29:31;13.20;;;7.63;;
37231;SDS011;23125;48.156;15.954;2022-12-28T15:31:57;14.27;;;8.00;;
37231;SDS011;23125;48.156;15.954;2022-12-28T15:34:23;12.68;;;8.63;;
37231;SDS011;23125;48.156;15.954;2022-12-28T15:36:49;10.25;;;7.00;;
37231;SDS011;23125;48.156;15.954;2022-12-28T15:39:16;9.15;;;5.63;;
37231;SDS011;23125;48.156;15.954;2022-12-28T15:41:42;14.35;;;8.18;;
37231;SDS011;23125;48.156;15.954;2022-12-28T15:44:10;12.73;;;7.80;;
37231;SDS011;23125;48.156;15.954;2022-12-28T15:46:43;18.90;;;8.35;;
37231;SDS011;23125;48.156;15.954;2022-12-28T15:49:09;10.13;;;6.55;;
37231;SDS011;23125;48.156;15.954;2022-12-28T15:51:37;9.95;;;6.55;;
37231;SDS011;23125;48.156;15.954;2022-12-28T15:54:03;11.48;;;6.40;;
37231;SDS011;23125;48.156;15.954;2022-12-28T15:56:31;13.40;;;5.88;;
37231;SDS011;23125;48.156;15.954;2022-12-28T15:58:59;11.85;;;6.47;;
37231;SDS011;23125;48.156;15.954;2022-12-28T16:01:27;11.18;;;6.03;;
37231;SDS011;23125;48.156;15.954;2022-12-28T16:03:56;11.38;;;6.55;;
37231;SDS011;23125;48.156;15.954;2022-12-28T16:06:23;17.05;;;8.23;;